createdAt,value
2023-05-09T00:02:23.730Z,12.80
2023-05-09T00:04:51.590Z,12.80
2023-05-09T00:07:18.506Z,12.90
2023-05-09T00:09:45.460Z,12.70
2023-05-09T00:12:12.461Z,12.70
2023-05-09T00:14:40.723Z,12.70
2023-05-09T00:17:07.848Z,12.80
2023-05-09T00:19:34.727Z,12.60
2023-05-09T00:22:01.595Z,12.60
2023-05-09T00:24:28.433Z,12.50
2023-05-09T00:26:55.336Z,12.50
2023-05-09T00:29:22.109Z,12.50
2023-05-09T00:31:49.027Z,12.40
2023-05-09T00:34:15.906Z,12.40
2023-05-09T00:36:42.831Z,12.30
2023-05-09T00:39:09.850Z,12.40
2023-05-09T00:41:36.811Z,12.30
2023-05-09T00:44:03.696Z,12.30
2023-05-09T00:46:31.002Z,12.30
2023-05-09T00:48:57.953Z,12.30
2023-05-09T00:51:25.926Z,12.20
2023-05-09T00:53:53.049Z,12.20
2023-05-09T00:56:19.910Z,12.30
2023-05-09T00:58:46.862Z,12.20
2023-05-09T01:01:13.939Z,12.30
2023-05-09T01:03:41.740Z,12.20
2023-05-09T01:06:27.307Z,12.10
2023-05-09T01:09:09.941Z,12.20
2023-05-09T01:11:53.861Z,12.10
2023-05-09T01:14:20.739Z,12.10
2023-05-09T01:17:10.839Z,12.10
2023-05-09T01:20:13.323Z,11.90
2023-05-09T01:22:46.673Z,12.00
2023-05-09T01:25:57.075Z,12.00
2023-05-09T01:28:34.644Z,11.90
2023-05-09T01:31:04.391Z,11.90
2023-05-09T01:33:33.839Z,12.00
2023-05-09T01:36:04.988Z,11.90
2023-05-09T01:38:32.887Z,12.00
2023-05-09T01:41:02.363Z,12.00
2023-05-09T01:43:30.893Z,12.00
2023-05-09T01:45:59.574Z,12.00
2023-05-09T01:48:30.103Z,12.00
2023-05-09T01:50:58.233Z,11.90
2023-05-09T01:53:28.079Z,11.80
2023-05-09T01:55:56.151Z,11.90
2023-05-09T01:58:25.778Z,11.80
2023-05-09T02:00:53.537Z,11.80
2023-05-09T02:03:21.491Z,11.80
2023-05-09T02:05:50.068Z,11.70
2023-05-09T02:08:21.134Z,11.80
2023-05-09T02:10:49.655Z,11.70
2023-05-09T02:13:16.538Z,11.70
2023-05-09T02:15:44.402Z,11.70
2023-05-09T02:18:11.312Z,11.70
2023-05-09T02:20:38.160Z,11.80
2023-05-09T02:23:05.261Z,11.80
2023-05-09T02:25:34.096Z,11.80
2023-05-09T02:28:02.241Z,11.80
2023-05-09T02:30:35.435Z,11.90
2023-05-09T02:33:07.128Z,11.80
2023-05-09T02:35:35.285Z,11.90
2023-05-09T02:38:02.479Z,11.80
2023-05-09T02:40:30.705Z,11.80
2023-05-09T02:42:57.935Z,11.80
2023-05-09T02:45:25.130Z,11.90
2023-05-09T02:47:52.161Z,11.80
2023-05-09T02:50:19.172Z,11.80
2023-05-09T02:52:46.258Z,11.80
2023-05-09T02:55:13.383Z,11.80
2023-05-09T02:57:42.075Z,11.70
2023-05-09T03:00:09.731Z,11.60
2023-05-09T03:02:37.577Z,11.60
2023-05-09T03:05:06.960Z,11.50
2023-05-09T03:07:35.860Z,11.50
2023-05-09T03:10:03.635Z,11.50
2023-05-09T03:12:31.661Z,11.50
2023-05-09T03:14:58.643Z,11.50
2023-05-09T03:17:25.579Z,11.40
2023-05-09T03:19:52.467Z,11.50
2023-05-09T03:22:20.826Z,11.40
2023-05-09T03:24:55.222Z,11.40
2023-05-09T03:27:22.155Z,11.30
2023-05-09T03:29:50.208Z,11.30
2023-05-09T03:32:18.863Z,11.40
2023-05-09T03:34:46.340Z,11.30
2023-05-09T03:37:13.389Z,11.30
2023-05-09T03:39:41.346Z,11.30
2023-05-09T03:42:08.276Z,11.30
2023-05-09T03:44:35.188Z,11.20
2023-05-09T03:47:02.157Z,11.30
2023-05-09T03:49:36.294Z,11.20
2023-05-09T03:52:03.598Z,11.30
2023-05-09T03:54:30.853Z,11.30
2023-05-09T03:56:57.737Z,11.30
2023-05-09T03:59:26.068Z,11.30
2023-05-09T04:01:53.912Z,11.20
2023-05-09T04:04:23.615Z,11.30
2023-05-09T04:06:50.621Z,11.20
2023-05-09T04:09:18.312Z,11.20
2023-05-09T04:11:46.849Z,11.20
2023-05-09T04:14:15.412Z,11.10
2023-05-09T04:16:42.654Z,11.10
2023-05-09T04:19:09.869Z,11.10
2023-05-09T04:21:36.738Z,11.20
2023-05-09T04:24:05.154Z,11.10
2023-05-09T04:26:42.416Z,11.10
2023-05-09T04:29:12.539Z,11.10
2023-05-09T04:31:40.063Z,11.10
2023-05-09T04:34:09.831Z,11.10
2023-05-09T04:36:38.276Z,11.00
2023-05-09T04:39:05.735Z,11.00
2023-05-09T04:41:34.805Z,10.90
2023-05-09T04:44:02.077Z,10.90
2023-05-09T04:46:29.723Z,10.90
2023-05-09T04:48:57.475Z,11.00
2023-05-09T04:51:24.398Z,10.90
2023-05-09T04:53:51.728Z,10.90
2023-05-09T04:56:21.887Z,10.90
2023-05-09T04:58:49.320Z,10.90
2023-05-09T05:01:16.807Z,10.90
2023-05-09T05:03:44.459Z,10.90
2023-05-09T05:06:11.484Z,10.90
2023-05-09T05:08:41.008Z,11.00
2023-05-09T05:11:08.851Z,10.90
2023-05-09T05:13:35.786Z,10.90
2023-05-09T05:16:02.645Z,10.80
2023-05-09T05:18:29.611Z,10.80
2023-05-09T05:20:56.638Z,10.90
2023-05-09T05:23:25.235Z,10.90
2023-05-09T05:25:54.183Z,10.90
2023-05-09T05:28:21.126Z,10.90
2023-05-09T05:30:48.094Z,10.90
2023-05-09T05:33:15.116Z,10.90
2023-05-09T05:35:41.928Z,10.80
2023-05-09T05:38:09.144Z,10.80
2023-05-09T05:40:36.574Z,10.90
2023-05-09T05:43:05.654Z,10.80
2023-05-09T05:45:34.077Z,10.90
2023-05-09T05:48:05.134Z,10.80
2023-05-09T05:50:32.679Z,10.80
2023-05-09T05:52:59.891Z,10.70
2023-05-09T05:55:26.926Z,10.80
2023-05-09T05:57:53.830Z,10.90
2023-05-09T06:00:20.898Z,10.80
2023-05-09T06:02:54.522Z,10.80
2023-05-09T06:05:29.442Z,10.80
2023-05-09T06:07:56.450Z,10.70
2023-05-09T06:10:23.276Z,10.70
2023-05-09T06:12:50.155Z,10.80
2023-05-09T06:15:17.679Z,10.70
2023-05-09T06:17:47.393Z,10.70
2023-05-09T06:20:14.302Z,10.70
2023-05-09T06:22:41.252Z,10.70
2023-05-09T06:25:10.570Z,10.80
2023-05-09T06:27:38.003Z,10.80
2023-05-09T06:30:14.234Z,11.00
2023-05-09T06:32:51.335Z,10.90
2023-05-09T06:35:18.327Z,10.90
2023-05-09T06:37:47.698Z,10.90
2023-05-09T06:40:16.228Z,10.90
2023-05-09T06:42:43.093Z,11.10
2023-05-09T06:45:10.481Z,11.10
2023-05-09T06:47:37.428Z,11.10
2023-05-09T06:50:04.735Z,11.20
2023-05-09T06:52:31.586Z,11.30
2023-05-09T06:54:58.425Z,11.30
2023-05-09T06:57:25.430Z,11.30
2023-05-09T06:59:52.286Z,11.40
2023-05-09T07:02:19.374Z,11.50
2023-05-09T07:04:46.289Z,11.50
2023-05-09T07:07:13.193Z,11.60
2023-05-09T07:09:40.046Z,11.70
2023-05-09T07:12:07.037Z,11.90
2023-05-09T07:14:33.922Z,11.80
2023-05-09T07:17:18.238Z,11.80
2023-05-09T07:19:47.598Z,11.80
2023-05-09T07:22:14.675Z,11.90
2023-05-09T07:24:41.760Z,12.00
2023-05-09T07:27:08.634Z,12.00
2023-05-09T07:29:36.000Z,12.10
2023-05-09T07:32:03.062Z,12.10
2023-05-09T07:34:29.965Z,12.20
2023-05-09T07:36:58.779Z,12.30
2023-05-09T07:39:25.706Z,12.30
2023-05-09T07:41:52.640Z,12.30
2023-05-09T07:44:19.526Z,12.40
2023-05-09T07:46:46.460Z,12.50
2023-05-09T07:49:13.328Z,12.60
2023-05-09T07:51:40.251Z,12.70
2023-05-09T07:54:07.267Z,12.70
2023-05-09T07:56:34.182Z,12.90
2023-05-09T07:59:01.664Z,12.80
2023-05-09T08:05:27.799Z,13.00
2023-05-09T08:07:54.733Z,13.10
2023-05-09T08:10:23.018Z,13.10
2023-05-09T08:12:49.900Z,13.10
2023-05-09T08:15:16.943Z,13.20
2023-05-09T08:17:44.276Z,13.20
2023-05-09T08:20:11.982Z,13.40
2023-05-09T08:22:39.950Z,13.40
2023-05-09T08:25:10.428Z,13.50
2023-05-09T08:27:37.523Z,13.40
2023-05-09T08:30:05.263Z,13.50
2023-05-09T08:32:32.133Z,13.60
2023-05-09T08:34:58.954Z,13.50
2023-05-09T08:37:27.438Z,13.70
2023-05-09T08:39:54.281Z,13.90
2023-05-09T08:42:25.532Z,13.90
2023-05-09T08:44:53.219Z,13.90
2023-05-09T08:47:21.241Z,14.00
2023-05-09T08:49:49.370Z,14.00
2023-05-09T08:52:16.656Z,14.10
2023-05-09T08:54:44.129Z,14.00
2023-05-09T08:57:11.017Z,14.30
2023-05-09T08:59:40.278Z,14.10
2023-05-09T09:02:07.872Z,14.20
2023-05-09T09:04:34.776Z,14.20
2023-05-09T09:07:05.841Z,14.20
2023-05-09T09:09:35.825Z,14.40
2023-05-09T09:12:06.602Z,14.50
2023-05-09T09:14:39.196Z,14.40
2023-05-09T09:17:08.021Z,14.50
2023-05-09T09:19:37.079Z,14.50
2023-05-09T09:22:05.080Z,14.60
2023-05-09T09:24:32.498Z,14.50
2023-05-09T09:27:06.296Z,14.60
2023-05-09T09:29:33.919Z,14.70
2023-05-09T09:32:05.991Z,14.80
2023-05-09T09:34:33.005Z,14.90
2023-05-09T09:36:59.858Z,15.00
2023-05-09T09:39:26.709Z,15.00
2023-05-09T09:41:54.061Z,15.00
2023-05-09T09:44:22.759Z,15.10
2023-05-09T09:46:55.140Z,15.20
2023-05-09T09:49:24.461Z,15.10
2023-05-09T11:43:19.016Z,17.00
2023-05-09T11:45:46.605Z,17.20
2023-05-09T11:48:13.566Z,17.10
2023-05-09T11:50:41.671Z,17.00
2023-05-09T11:53:12.381Z,17.00
2023-05-09T11:55:41.518Z,17.00
2023-05-09T11:58:09.196Z,17.10
2023-05-09T12:00:37.530Z,17.20
2023-05-09T12:03:06.105Z,17.10
2023-05-09T12:05:33.171Z,17.00
2023-05-09T12:08:04.765Z,17.10
2023-05-09T12:10:31.716Z,17.30
2023-05-09T12:12:58.704Z,17.30
2023-05-09T12:15:25.588Z,17.30
2023-05-09T12:18:07.043Z,17.40
2023-05-09T12:20:41.782Z,17.40
2023-05-09T12:23:14.351Z,17.40
2023-05-09T12:25:55.589Z,17.50
2023-05-09T12:28:26.293Z,17.50
2023-05-09T12:30:54.274Z,17.60
2023-05-09T12:33:21.742Z,17.60
2023-05-09T12:36:00.662Z,17.70
2023-05-09T12:38:27.605Z,17.90
2023-05-09T12:41:05.248Z,17.80
2023-05-09T12:43:33.784Z,17.90
2023-05-09T12:46:02.443Z,17.90
2023-05-09T12:48:30.640Z,17.90
2023-05-09T12:51:02.122Z,17.90
2023-05-09T12:53:31.703Z,17.90
2023-05-09T12:56:11.339Z,17.90
2023-05-09T12:58:38.887Z,17.90
2023-05-09T13:01:06.166Z,18.00
2023-05-09T13:03:37.772Z,18.00
2023-05-09T13:06:10.407Z,17.90
2023-05-09T13:08:37.541Z,17.90
2023-05-09T13:11:15.388Z,17.90
2023-05-09T13:13:43.914Z,18.10
2023-05-09T13:16:12.182Z,18.10
2023-05-09T13:18:40.981Z,18.10
2023-05-09T13:21:07.835Z,18.10
2023-05-09T13:23:34.635Z,18.20
2023-05-09T13:26:01.481Z,18.30
2023-05-09T13:28:28.365Z,18.40
2023-05-09T13:30:55.279Z,18.40
2023-05-09T13:33:25.837Z,18.40
2023-05-09T13:35:53.694Z,18.30
2023-05-09T13:38:20.795Z,18.20
2023-05-09T13:40:47.589Z,18.20
2023-05-09T13:43:14.386Z,18.10
2023-05-09T13:45:41.267Z,18.10
2023-05-09T13:48:08.227Z,18.20
2023-05-09T13:50:35.158Z,18.30
2023-05-09T13:53:01.984Z,18.30
2023-05-09T13:55:29.731Z,18.30
2023-05-09T13:57:57.017Z,18.50
2023-05-09T14:00:26.618Z,18.40
2023-05-09T14:02:53.653Z,18.20
2023-05-09T14:05:20.547Z,18.30
2023-05-09T14:07:47.552Z,18.30
2023-05-09T14:10:14.514Z,18.30
2023-05-09T14:12:44.299Z,18.30
2023-05-09T14:15:11.405Z,18.30
2023-05-09T14:17:38.419Z,18.30
2023-05-09T14:20:06.643Z,18.30
2023-05-09T14:22:33.501Z,18.30
2023-05-09T14:25:00.379Z,18.40
2023-05-09T14:27:27.534Z,18.30
2023-05-09T14:29:54.413Z,18.30
2023-05-09T14:32:21.475Z,18.40
2023-05-09T14:34:49.626Z,18.40
2023-05-09T14:37:16.886Z,18.40
2023-05-09T14:39:45.523Z,18.40
2023-05-09T14:42:13.965Z,18.40
2023-05-09T14:44:41.515Z,18.40
2023-05-09T14:47:09.593Z,18.40
2023-05-09T14:49:39.752Z,18.40
2023-05-09T14:52:06.615Z,18.40
2023-05-09T14:54:33.636Z,18.40
2023-05-09T14:57:02.093Z,18.30
2023-05-09T14:59:29.495Z,18.40
2023-05-09T15:01:56.302Z,18.40
2023-05-09T15:04:25.428Z,18.50
2023-05-09T15:06:52.282Z,18.50
2023-05-09T15:09:19.386Z,18.50
2023-05-09T15:11:48.782Z,18.50
2023-05-09T15:14:16.710Z,18.30
2023-05-09T15:16:44.003Z,18.40
2023-05-09T15:19:11.062Z,18.40
2023-05-09T15:21:37.968Z,18.40
2023-05-09T15:24:05.538Z,18.30
2023-05-09T15:26:32.635Z,18.40
2023-05-09T15:28:59.611Z,18.40
2023-05-09T15:31:26.605Z,18.30
2023-05-09T15:33:53.591Z,18.30
2023-05-09T15:36:20.430Z,18.20
2023-05-09T15:38:49.487Z,18.30
2023-05-09T15:41:17.102Z,18.20
2023-05-09T15:43:44.149Z,18.30
2023-05-09T15:46:11.174Z,18.20
2023-05-09T15:48:38.082Z,18.20
2023-05-09T15:51:05.160Z,18.10
2023-05-09T15:53:32.114Z,18.10
2023-05-09T15:55:58.971Z,18.10
2023-05-09T15:58:25.775Z,18.20
2023-05-09T16:00:52.620Z,18.20
2023-05-09T16:03:19.836Z,18.30
2023-05-09T16:05:46.942Z,18.20
2023-05-09T16:08:14.470Z,18.20
2023-05-09T16:10:41.282Z,18.20
2023-05-09T16:13:08.291Z,18.30
2023-05-09T16:15:35.579Z,18.10
2023-05-09T16:18:02.407Z,18.20
2023-05-09T16:20:29.237Z,18.30
2023-05-09T16:22:56.076Z,18.30
2023-05-09T16:25:22.892Z,18.20
2023-05-09T16:27:49.775Z,18.30
2023-05-09T16:30:16.969Z,18.00
2023-05-09T16:32:44.688Z,18.20
2023-05-09T16:35:12.517Z,18.10
2023-05-09T16:37:39.273Z,18.10
2023-05-09T16:40:06.764Z,18.10
2023-05-09T16:42:33.633Z,18.10
2023-05-09T16:45:00.483Z,18.10
2023-05-09T16:47:27.301Z,18.20
2023-05-09T16:49:54.445Z,18.00
2023-05-09T16:52:23.064Z,17.90
2023-05-09T16:54:50.432Z,18.00
2023-05-09T16:57:17.246Z,17.90
2023-05-09T16:59:44.086Z,17.90
2023-05-09T17:02:10.925Z,17.90
2023-05-09T17:04:38.003Z,17.90
2023-05-09T17:07:04.959Z,17.90
2023-05-09T17:09:32.483Z,17.80
2023-05-09T17:12:00.520Z,17.80
2023-05-09T17:14:27.553Z,17.70
2023-05-09T17:16:54.564Z,17.60
2023-05-09T17:19:23.469Z,17.70
2023-05-09T17:21:50.724Z,17.70
2023-05-09T17:24:17.905Z,17.70
2023-05-09T17:26:44.851Z,17.60
2023-05-09T17:29:11.676Z,17.60
2023-05-09T17:31:38.530Z,17.50
2023-05-09T17:34:05.773Z,17.50
2023-05-09T17:36:33.756Z,17.50
2023-05-09T17:39:00.898Z,17.50
2023-05-09T17:41:27.986Z,17.40
2023-05-09T17:43:57.272Z,17.40
2023-05-09T17:46:24.866Z,17.30
2023-05-09T17:48:51.889Z,17.30
2023-05-09T17:51:18.774Z,17.30
2023-05-09T17:53:46.740Z,17.20
2023-05-09T17:56:13.672Z,17.10
2023-05-09T17:58:40.573Z,17.10
2023-05-09T18:01:07.713Z,17.10
2023-05-09T18:03:34.817Z,17.00
2023-05-09T18:06:01.949Z,16.90
2023-05-09T18:08:29.825Z,16.80
2023-05-09T18:10:57.744Z,16.80
2023-05-09T18:13:24.858Z,16.80
2023-05-09T18:15:54.032Z,16.80
2023-05-09T18:18:22.275Z,16.80
2023-05-09T18:20:49.238Z,16.50
2023-05-09T18:23:16.306Z,16.70
2023-05-09T18:25:43.132Z,16.80
2023-05-09T18:28:10.968Z,16.60
2023-05-09T18:30:38.833Z,16.60
2023-05-09T18:33:05.865Z,16.50
2023-05-09T18:35:33.008Z,16.60
2023-05-09T18:37:59.867Z,16.50
2023-05-09T18:40:27.106Z,16.40
2023-05-09T18:42:53.885Z,16.50
2023-05-09T18:45:20.820Z,16.50
2023-05-09T18:47:47.697Z,16.40
2023-05-09T18:50:15.011Z,16.40
2023-05-09T18:52:44.329Z,16.40
2023-05-09T18:55:11.530Z,16.30
2023-05-09T18:57:38.362Z,16.30
2023-05-09T19:00:05.601Z,16.50
2023-05-09T19:02:32.426Z,16.40
2023-05-09T19:05:00.774Z,16.40
2023-05-09T19:07:27.757Z,16.40
2023-05-09T19:09:54.559Z,16.40
2023-05-09T19:12:21.388Z,16.30
2023-05-09T19:14:48.211Z,16.30
2023-05-09T19:17:15.024Z,16.30
2023-05-09T19:19:42.022Z,16.20
2023-05-09T19:22:08.904Z,16.20
2023-05-09T19:24:35.869Z,16.20
2023-05-09T19:27:02.832Z,16.20
2023-05-09T19:29:29.750Z,16.20
2023-05-09T19:31:56.548Z,16.10
2023-05-09T19:34:23.936Z,16.20
2023-05-09T19:36:50.787Z,16.10
2023-05-09T19:39:17.580Z,16.10
2023-05-09T19:41:44.419Z,16.10
2023-05-09T19:44:11.262Z,15.90
2023-05-09T19:46:42.806Z,15.80
2023-05-09T19:49:13.263Z,15.80
2023-05-09T19:51:40.485Z,15.90
2023-05-09T19:54:07.345Z,15.80
2023-05-09T19:56:34.291Z,16.00
2023-05-09T19:59:01.139Z,16.10
2023-05-09T20:01:28.352Z,16.00
2023-05-09T20:03:56.657Z,15.80
2023-05-09T20:06:25.322Z,15.70
2023-05-09T20:08:52.184Z,15.90
2023-05-09T20:11:18.977Z,15.80
2023-05-09T20:13:45.829Z,15.80
2023-05-09T20:16:12.757Z,15.60
2023-05-09T20:18:39.764Z,15.50
2023-05-09T20:21:09.650Z,15.60
2023-05-09T20:23:37.037Z,15.80
2023-05-09T20:26:03.924Z,15.60
2023-05-09T20:28:30.689Z,15.60
2023-05-09T20:30:57.541Z,15.50
2023-05-09T20:33:24.435Z,15.50
2023-05-09T20:35:51.269Z,15.30
2023-05-09T20:38:18.388Z,15.30
2023-05-09T20:40:45.179Z,15.20
2023-05-09T20:43:11.921Z,15.20
2023-05-09T20:45:38.915Z,15.20
2023-05-09T20:48:06.636Z,15.20
2023-05-09T20:50:33.548Z,15.10
2023-05-09T20:53:00.339Z,15.10
2023-05-09T20:55:27.202Z,15.10
2023-05-09T20:57:54.147Z,15.10
2023-05-09T21:00:21.087Z,15.10
2023-05-09T21:02:48.056Z,15.10
2023-05-09T21:05:14.951Z,14.90
2023-05-09T21:07:41.724Z,15.00
2023-05-09T21:10:10.259Z,15.00
2023-05-09T21:12:37.182Z,14.90
2023-05-09T21:15:04.272Z,15.00
2023-05-09T21:17:31.305Z,14.90
2023-05-09T21:19:58.107Z,14.90
2023-05-09T21:22:25.051Z,14.80
2023-05-09T21:24:51.933Z,14.80
2023-05-09T21:27:18.776Z,14.90
2023-05-09T21:29:49.126Z,14.90
2023-05-09T21:32:17.002Z,14.80
2023-05-09T21:34:43.876Z,14.90
2023-05-09T21:37:10.654Z,14.80
2023-05-09T21:39:37.520Z,14.80
2023-05-09T21:42:04.326Z,14.80
2023-05-09T21:44:31.184Z,14.80
2023-05-09T21:46:58.144Z,14.70
2023-05-09T21:49:26.840Z,14.90
2023-05-09T21:51:53.651Z,14.70
2023-05-09T21:54:21.003Z,14.90
2023-05-09T21:56:47.788Z,14.70
2023-05-09T21:59:14.606Z,14.70
2023-05-09T22:01:42.586Z,14.70
2023-05-09T22:04:11.689Z,14.70
2023-05-09T22:06:38.504Z,14.70
2023-05-09T22:09:06.581Z,14.70
2023-05-09T22:11:33.659Z,14.70
2023-05-09T22:14:00.503Z,14.70
2023-05-09T22:16:27.480Z,14.60
2023-05-09T22:18:54.431Z,14.60
2023-05-09T22:21:21.281Z,14.60
2023-05-09T22:23:48.054Z,14.60
2023-05-09T22:26:14.882Z,14.70
2023-05-09T22:28:41.648Z,14.70
2023-05-09T22:31:08.743Z,14.70
2023-05-09T22:33:35.732Z,14.60
2023-05-09T22:36:02.561Z,14.70
2023-05-09T22:38:29.352Z,14.70
2023-05-09T22:40:56.175Z,14.60
2023-05-09T22:43:24.176Z,14.70
2023-05-09T22:45:52.725Z,14.60
2023-05-09T22:48:19.569Z,14.80
2023-05-09T22:50:46.318Z,14.80
2023-05-09T22:53:13.100Z,14.80
2023-05-09T22:55:39.891Z,14.90
2023-05-09T22:58:06.739Z,15.00
2023-05-09T23:00:33.714Z,14.70
2023-05-09T23:03:00.896Z,14.90
2023-05-09T23:05:27.783Z,14.80
2023-05-09T23:07:54.721Z,14.70
2023-05-09T23:10:21.601Z,14.60
2023-05-09T23:12:48.415Z,14.60
2023-05-09T23:15:15.404Z,14.70
2023-05-09T23:17:42.200Z,14.70
2023-05-09T23:20:09.461Z,14.80
2023-05-09T23:22:36.300Z,14.80
2023-05-09T23:25:03.282Z,14.80
2023-05-09T23:27:38.724Z,14.80
2023-05-09T23:30:06.939Z,14.90
2023-05-09T23:32:33.762Z,14.70
2023-05-09T23:35:00.556Z,14.60
2023-05-09T23:37:27.331Z,14.60
2023-05-09T23:39:54.143Z,14.80
2023-05-09T23:42:20.934Z,14.70
2023-05-09T23:44:48.060Z,14.70
2023-05-09T23:47:14.798Z,14.60
2023-05-09T23:49:42.978Z,14.70
2023-05-09T23:52:09.958Z,14.70
2023-05-09T23:54:37.241Z,14.80
2023-05-09T23:57:04.141Z,14.70
2023-05-09T23:59:30.903Z,14.70
